sensor_id;sensor_type;location;lat;lon;timestamp;P1;durP1;ratioP1;P2;durP2;ratioP2
1358;SDS011;673;48.098;14.422;2023-06-22T00:01:16;7.40;;;2.87;;
1358;SDS011;673;48.098;14.422;2023-06-22T00:03:43;5.40;;;2.23;;
1358;SDS011;673;48.098;14.422;2023-06-22T00:06:10;4.17;;;2.90;;
1358;SDS011;673;48.098;14.422;2023-06-22T00:08:38;6.77;;;2.80;;
1358;SDS011;673;48.098;14.422;2023-06-22T00:11:05;3.83;;;2.33;;
1358;SDS011;673;48.098;14.422;2023-06-22T00:13:32;4.90;;;2.03;;
1358;SDS011;673;48.098;14.422;2023-06-22T00:15:59;4.40;;;2.83;;
1358;SDS011;673;48.098;14.422;2023-06-22T00:18:26;9.97;;;2.77;;
1358;SDS011;673;48.098;14.422;2023-06-22T00:20:53;3.87;;;2.70;;
1358;SDS011;673;48.098;14.422;2023-06-22T00:23:23;5.87;;;2.07;;
1358;SDS011;673;48.098;14.422;2023-06-22T00:25:51;4.00;;;2.97;;
1358;SDS011;673;48.098;14.422;2023-06-22T00:28:18;4.80;;;1.97;;
1358;SDS011;673;48.098;14.422;2023-06-22T00:30:46;6.07;;;3.40;;
1358;SDS011;673;48.098;14.422;2023-06-22T00:33:13;6.20;;;2.90;;
1358;SDS011;673;48.098;14.422;2023-06-22T00:35:41;3.87;;;2.17;;
1358;SDS011;673;48.098;14.422;2023-06-22T00:38:08;4.97;;;2.87;;
1358;SDS011;673;48.098;14.422;2023-06-22T00:40:35;9.30;;;2.30;;
1358;SDS011;673;48.098;14.422;2023-06-22T00:43:05;5.20;;;2.70;;
1358;SDS011;673;48.098;14.422;2023-06-22T00:45:32;11.13;;;3.40;;
1358;SDS011;673;48.098;14.422;2023-06-22T00:47:59;8.00;;;2.60;;
1358;SDS011;673;48.098;14.422;2023-06-22T00:50:28;6.80;;;2.57;;
1358;SDS011;673;48.098;14.422;2023-06-22T00:52:58;6.40;;;2.63;;
1358;SDS011;673;48.098;14.422;2023-06-22T00:55:27;11.70;;;2.50;;
1358;SDS011;673;48.098;14.422;2023-06-22T00:57:55;5.93;;;2.90;;
1358;SDS011;673;48.098;14.422;2023-06-22T01:00:24;6.80;;;2.40;;
1358;SDS011;673;48.098;14.422;2023-06-22T01:02:51;5.00;;;2.40;;
1358;SDS011;673;48.098;14.422;2023-06-22T01:05:19;7.80;;;2.70;;
1358;SDS011;673;48.098;14.422;2023-06-22T01:07:52;4.33;;;2.70;;
1358;SDS011;673;48.098;14.422;2023-06-22T01:10:32;7.93;;;2.50;;
1358;SDS011;673;48.098;14.422;2023-06-22T01:13:06;5.50;;;2.43;;
1358;SDS011;673;48.098;14.422;2023-06-22T01:15:44;7.20;;;2.40;;
1358;SDS011;673;48.098;14.422;2023-06-22T01:18:14;8.53;;;3.67;;
1358;SDS011;673;48.098;14.422;2023-06-22T01:20:43;4.20;;;2.50;;
1358;SDS011;673;48.098;14.422;2023-06-22T01:23:11;2.97;;;2.67;;
1358;SDS011;673;48.098;14.422;2023-06-22T01:25:54;5.37;;;2.90;;
1358;SDS011;673;48.098;14.422;2023-06-22T01:28:43;7.20;;;3.23;;
1358;SDS011;673;48.098;14.422;2023-06-22T01:31:13;4.30;;;2.80;;
1358;SDS011;673;48.098;14.422;2023-06-22T01:33:43;5.13;;;2.80;;
1358;SDS011;673;48.098;14.422;2023-06-22T01:36:14;4.33;;;2.00;;
1358;SDS011;673;48.098;14.422;2023-06-22T01:38:42;7.03;;;3.10;;
1358;SDS011;673;48.098;14.422;2023-06-22T01:41:11;5.47;;;2.90;;
1358;SDS011;673;48.098;14.422;2023-06-22T01:43:39;4.23;;;3.50;;
1358;SDS011;673;48.098;14.422;2023-06-22T01:46:08;7.87;;;3.10;;
1358;SDS011;673;48.098;14.422;2023-06-22T01:48:36;9.87;;;3.43;;
1358;SDS011;673;48.098;14.422;2023-06-22T01:51:03;8.00;;;3.20;;
1358;SDS011;673;48.098;14.422;2023-06-22T01:53:30;9.00;;;3.10;;
1358;SDS011;673;48.098;14.422;2023-06-22T01:55:58;7.67;;;2.63;;
1358;SDS011;673;48.098;14.422;2023-06-22T01:58:26;5.87;;;3.80;;
1358;SDS011;673;48.098;14.422;2023-06-22T02:00:55;7.83;;;3.90;;
1358;SDS011;673;48.098;14.422;2023-06-22T02:03:31;5.13;;;2.80;;
1358;SDS011;673;48.098;14.422;2023-06-22T02:06:02;7.20;;;3.53;;
1358;SDS011;673;48.098;14.422;2023-06-22T02:08:32;9.13;;;3.53;;
1358;SDS011;673;48.098;14.422;2023-06-22T02:11:02;3.20;;;2.70;;
1358;SDS011;673;48.098;14.422;2023-06-22T02:13:31;13.13;;;3.67;;
1358;SDS011;673;48.098;14.422;2023-06-22T02:15:59;5.63;;;3.20;;
1358;SDS011;673;48.098;14.422;2023-06-22T02:18:27;7.57;;;3.00;;
1358;SDS011;673;48.098;14.422;2023-06-22T02:20:55;11.43;;;3.57;;
1358;SDS011;673;48.098;14.422;2023-06-22T02:23:22;6.77;;;3.33;;
1358;SDS011;673;48.098;14.422;2023-06-22T02:25:49;4.10;;;2.60;;
1358;SDS011;673;48.098;14.422;2023-06-22T02:28:16;6.37;;;3.07;;
1358;SDS011;673;48.098;14.422;2023-06-22T02:30:43;3.67;;;2.43;;
1358;SDS011;673;48.098;14.422;2023-06-22T02:33:10;2.87;;;2.57;;
1358;SDS011;673;48.098;14.422;2023-06-22T02:35:37;5.50;;;3.47;;
1358;SDS011;673;48.098;14.422;2023-06-22T02:38:06;4.27;;;3.00;;
1358;SDS011;673;48.098;14.422;2023-06-22T02:40:33;4.53;;;2.40;;
1358;SDS011;673;48.098;14.422;2023-06-22T02:43:00;4.40;;;3.27;;
1358;SDS011;673;48.098;14.422;2023-06-22T02:45:28;6.10;;;2.30;;
1358;SDS011;673;48.098;14.422;2023-06-22T02:47:55;5.23;;;3.10;;
1358;SDS011;673;48.098;14.422;2023-06-22T02:50:22;5.10;;;2.20;;
1358;SDS011;673;48.098;14.422;2023-06-22T02:52:49;4.47;;;2.70;;
1358;SDS011;673;48.098;14.422;2023-06-22T02:55:17;5.73;;;2.33;;
1358;SDS011;673;48.098;14.422;2023-06-22T02:57:44;7.10;;;3.23;;
1358;SDS011;673;48.098;14.422;2023-06-22T03:00:13;5.43;;;2.80;;
1358;SDS011;673;48.098;14.422;2023-06-22T03:02:43;5.83;;;3.23;;
1358;SDS011;673;48.098;14.422;2023-06-22T03:05:10;5.50;;;3.40;;
1358;SDS011;673;48.098;14.422;2023-06-22T03:07:39;5.23;;;3.27;;
1358;SDS011;673;48.098;14.422;2023-06-22T03:10:07;6.70;;;3.30;;
1358;SDS011;673;48.098;14.422;2023-06-22T03:12:37;5.37;;;3.50;;
1358;SDS011;673;48.098;14.422;2023-06-22T03:15:05;11.77;;;4.17;;
1358;SDS011;673;48.098;14.422;2023-06-22T03:17:33;5.40;;;3.17;;
1358;SDS011;673;48.098;14.422;2023-06-22T03:20:00;5.30;;;2.67;;
1358;SDS011;673;48.098;14.422;2023-06-22T03:22:32;6.63;;;3.00;;
1358;SDS011;673;48.098;14.422;2023-06-22T03:24:59;5.23;;;4.00;;
1358;SDS011;673;48.098;14.422;2023-06-22T03:27:26;8.23;;;4.10;;
1358;SDS011;673;48.098;14.422;2023-06-22T03:29:54;7.40;;;4.43;;
1358;SDS011;673;48.098;14.422;2023-06-22T03:32:23;5.20;;;2.70;;
1358;SDS011;673;48.098;14.422;2023-06-22T03:34:50;5.13;;;3.03;;
1358;SDS011;673;48.098;14.422;2023-06-22T03:37:17;10.47;;;3.87;;
1358;SDS011;673;48.098;14.422;2023-06-22T03:39:44;6.33;;;3.50;;
1358;SDS011;673;48.098;14.422;2023-06-22T03:42:11;11.33;;;3.77;;
1358;SDS011;673;48.098;14.422;2023-06-22T03:44:38;10.50;;;3.83;;
1358;SDS011;673;48.098;14.422;2023-06-22T03:47:06;6.17;;;4.07;;
1358;SDS011;673;48.098;14.422;2023-06-22T03:49:34;7.67;;;3.57;;
1358;SDS011;673;48.098;14.422;2023-06-22T03:52:01;8.80;;;3.00;;
1358;SDS011;673;48.098;14.422;2023-06-22T03:54:29;8.33;;;5.07;;
1358;SDS011;673;48.098;14.422;2023-06-22T03:56:56;11.40;;;4.10;;
1358;SDS011;673;48.098;14.422;2023-06-22T03:59:24;5.20;;;3.33;;
1358;SDS011;673;48.098;14.422;2023-06-22T04:01:51;5.23;;;2.93;;
1358;SDS011;673;48.098;14.422;2023-06-22T04:04:20;7.50;;;3.33;;
1358;SDS011;673;48.098;14.422;2023-06-22T04:06:47;6.20;;;2.83;;
1358;SDS011;673;48.098;14.422;2023-06-22T04:09:14;3.80;;;3.10;;
1358;SDS011;673;48.098;14.422;2023-06-22T04:11:41;3.07;;;2.77;;
1358;SDS011;673;48.098;14.422;2023-06-22T04:14:08;5.63;;;4.00;;
1358;SDS011;673;48.098;14.422;2023-06-22T04:16:35;7.13;;;3.73;;
1358;SDS011;673;48.098;14.422;2023-06-22T04:19:02;6.27;;;4.00;;
1358;SDS011;673;48.098;14.422;2023-06-22T04:21:30;13.77;;;5.13;;
1358;SDS011;673;48.098;14.422;2023-06-22T04:23:57;9.83;;;4.13;;
1358;SDS011;673;48.098;14.422;2023-06-22T04:26:24;9.57;;;3.80;;
1358;SDS011;673;48.098;14.422;2023-06-22T04:28:51;8.60;;;4.70;;
1358;SDS011;673;48.098;14.422;2023-06-22T04:31:20;4.13;;;3.53;;
1358;SDS011;673;48.098;14.422;2023-06-22T04:33:57;8.03;;;3.93;;
1358;SDS011;673;48.098;14.422;2023-06-22T04:36:31;4.43;;;2.90;;
1358;SDS011;673;48.098;14.422;2023-06-22T04:39:02;4.20;;;2.70;;
1358;SDS011;673;48.098;14.422;2023-06-22T04:41:31;8.23;;;4.10;;
1358;SDS011;673;48.098;14.422;2023-06-22T04:44:07;5.03;;;3.47;;
1358;SDS011;673;48.098;14.422;2023-06-22T04:46:35;7.60;;;3.90;;
1358;SDS011;673;48.098;14.422;2023-06-22T04:49:03;5.17;;;3.50;;
1358;SDS011;673;48.098;14.422;2023-06-22T04:51:38;12.30;;;5.57;;
1358;SDS011;673;48.098;14.422;2023-06-22T04:54:08;6.70;;;4.37;;
1358;SDS011;673;48.098;14.422;2023-06-22T04:56:36;3.27;;;2.97;;
1358;SDS011;673;48.098;14.422;2023-06-22T04:59:06;11.20;;;4.20;;
1358;SDS011;673;48.098;14.422;2023-06-22T05:01:33;5.83;;;3.93;;
1358;SDS011;673;48.098;14.422;2023-06-22T05:04:01;8.33;;;3.80;;
1358;SDS011;673;48.098;14.422;2023-06-22T05:06:29;11.00;;;3.50;;
1358;SDS011;673;48.098;14.422;2023-06-22T05:08:57;9.70;;;3.57;;
1358;SDS011;673;48.098;14.422;2023-06-22T05:11:24;7.33;;;3.53;;
1358;SDS011;673;48.098;14.422;2023-06-22T05:13:52;9.93;;;4.43;;
1358;SDS011;673;48.098;14.422;2023-06-22T05:16:19;8.47;;;4.00;;
1358;SDS011;673;48.098;14.422;2023-06-22T05:18:49;7.03;;;4.37;;
1358;SDS011;673;48.098;14.422;2023-06-22T05:21:18;10.27;;;3.87;;
1358;SDS011;673;48.098;14.422;2023-06-22T05:23:47;9.40;;;4.37;;
1358;SDS011;673;48.098;14.422;2023-06-22T05:26:16;9.93;;;4.43;;
1358;SDS011;673;48.098;14.422;2023-06-22T05:28:42;8.13;;;4.70;;
1358;SDS011;673;48.098;14.422;2023-06-22T05:31:11;5.03;;;4.10;;
1358;SDS011;673;48.098;14.422;2023-06-22T05:33:39;9.10;;;4.50;;
1358;SDS011;673;48.098;14.422;2023-06-22T05:36:06;6.67;;;3.93;;
1358;SDS011;673;48.098;14.422;2023-06-22T05:38:33;9.73;;;3.33;;
1358;SDS011;673;48.098;14.422;2023-06-22T05:41:00;9.03;;;4.70;;
1358;SDS011;673;48.098;14.422;2023-06-22T05:43:28;12.80;;;3.93;;
1358;SDS011;673;48.098;14.422;2023-06-22T05:45:55;6.43;;;3.87;;
1358;SDS011;673;48.098;14.422;2023-06-22T05:48:22;8.03;;;3.93;;
1358;SDS011;673;48.098;14.422;2023-06-22T05:50:49;7.73;;;3.70;;
1358;SDS011;673;48.098;14.422;2023-06-22T05:53:16;9.00;;;4.10;;
1358;SDS011;673;48.098;14.422;2023-06-22T05:55:43;9.03;;;3.53;;
1358;SDS011;673;48.098;14.422;2023-06-22T05:58:10;8.50;;;3.63;;
1358;SDS011;673;48.098;14.422;2023-06-22T06:00:39;4.63;;;3.90;;
1358;SDS011;673;48.098;14.422;2023-06-22T06:03:06;10.03;;;5.07;;
1358;SDS011;673;48.098;14.422;2023-06-22T06:05:34;5.83;;;4.10;;
1358;SDS011;673;48.098;14.422;2023-06-22T06:08:01;7.53;;;3.90;;
1358;SDS011;673;48.098;14.422;2023-06-22T06:10:30;8.30;;;4.83;;
1358;SDS011;673;48.098;14.422;2023-06-22T06:12:57;4.10;;;3.77;;
1358;SDS011;673;48.098;14.422;2023-06-22T06:15:27;11.53;;;4.57;;
1358;SDS011;673;48.098;14.422;2023-06-22T06:17:55;7.67;;;4.73;;
1358;SDS011;673;48.098;14.422;2023-06-22T06:20:23;9.03;;;4.37;;
1358;SDS011;673;48.098;14.422;2023-06-22T06:22:51;7.00;;;4.10;;
1358;SDS011;673;48.098;14.422;2023-06-22T06:25:18;6.33;;;3.60;;
1358;SDS011;673;48.098;14.422;2023-06-22T06:27:46;12.17;;;4.67;;
1358;SDS011;673;48.098;14.422;2023-06-22T06:30:15;11.30;;;4.40;;
1358;SDS011;673;48.098;14.422;2023-06-22T06:32:44;5.07;;;4.00;;
1358;SDS011;673;48.098;14.422;2023-06-22T06:35:13;9.73;;;3.70;;
1358;SDS011;673;48.098;14.422;2023-06-22T06:37:42;6.20;;;4.00;;
1358;SDS011;673;48.098;14.422;2023-06-22T06:40:11;7.30;;;3.80;;
1358;SDS011;673;48.098;14.422;2023-06-22T06:42:39;6.57;;;3.30;;
1358;SDS011;673;48.098;14.422;2023-06-22T06:45:09;7.40;;;3.63;;
1358;SDS011;673;48.098;14.422;2023-06-22T06:47:36;5.80;;;3.50;;
1358;SDS011;673;48.098;14.422;2023-06-22T06:50:04;4.47;;;3.27;;
1358;SDS011;673;48.098;14.422;2023-06-22T06:52:33;7.00;;;2.77;;
1358;SDS011;673;48.098;14.422;2023-06-22T06:55:00;8.37;;;4.87;;
1358;SDS011;673;48.098;14.422;2023-06-22T06:57:29;6.07;;;3.50;;
1358;SDS011;673;48.098;14.422;2023-06-22T06:59:57;5.47;;;2.90;;
1358;SDS011;673;48.098;14.422;2023-06-22T07:02:25;3.80;;;3.20;;
1358;SDS011;673;48.098;14.422;2023-06-22T07:04:53;5.93;;;2.80;;
1358;SDS011;673;48.098;14.422;2023-06-22T07:07:22;6.47;;;3.63;;
1358;SDS011;673;48.098;14.422;2023-06-22T07:09:51;5.20;;;3.13;;
1358;SDS011;673;48.098;14.422;2023-06-22T07:12:18;3.77;;;3.00;;
1358;SDS011;673;48.098;14.422;2023-06-22T07:14:45;5.30;;;4.87;;
1358;SDS011;673;48.098;14.422;2023-06-22T07:17:12;4.37;;;3.97;;
1358;SDS011;673;48.098;14.422;2023-06-22T07:19:39;6.23;;;3.63;;
1358;SDS011;673;48.098;14.422;2023-06-22T07:22:07;14.33;;;4.47;;
1358;SDS011;673;48.098;14.422;2023-06-22T07:24:34;4.83;;;3.67;;
1358;SDS011;673;48.098;14.422;2023-06-22T07:27:03;3.93;;;3.50;;
1358;SDS011;673;48.098;14.422;2023-06-22T07:29:31;4.60;;;3.53;;
1358;SDS011;673;48.098;14.422;2023-06-22T07:31:58;7.40;;;3.10;;
1358;SDS011;673;48.098;14.422;2023-06-22T07:34:25;6.27;;;3.73;;
1358;SDS011;673;48.098;14.422;2023-06-22T07:36:52;3.83;;;3.47;;
1358;SDS011;673;48.098;14.422;2023-06-22T07:39:19;4.27;;;3.40;;
1358;SDS011;673;48.098;14.422;2023-06-22T07:41:50;4.00;;;3.60;;
1358;SDS011;673;48.098;14.422;2023-06-22T07:44:19;4.00;;;2.73;;
1358;SDS011;673;48.098;14.422;2023-06-22T07:46:46;5.90;;;3.40;;
1358;SDS011;673;48.098;14.422;2023-06-22T07:49:13;5.33;;;4.07;;
1358;SDS011;673;48.098;14.422;2023-06-22T07:51:40;7.77;;;3.33;;
1358;SDS011;673;48.098;14.422;2023-06-22T07:54:07;5.27;;;3.70;;
1358;SDS011;673;48.098;14.422;2023-06-22T07:56:36;4.70;;;3.37;;
1358;SDS011;673;48.098;14.422;2023-06-22T07:59:03;4.20;;;3.50;;
1358;SDS011;673;48.098;14.422;2023-06-22T08:01:31;7.30;;;3.17;;
1358;SDS011;673;48.098;14.422;2023-06-22T08:03:58;4.20;;;3.43;;
1358;SDS011;673;48.098;14.422;2023-06-22T08:06:25;5.20;;;3.30;;
1358;SDS011;673;48.098;14.422;2023-06-22T08:08:52;6.43;;;4.00;;
1358;SDS011;673;48.098;14.422;2023-06-22T08:11:22;5.93;;;4.13;;
1358;SDS011;673;48.098;14.422;2023-06-22T08:13:50;3.47;;;3.20;;
1358;SDS011;673;48.098;14.422;2023-06-22T08:16:17;5.60;;;3.60;;
1358;SDS011;673;48.098;14.422;2023-06-22T08:18:45;3.80;;;3.30;;
1358;SDS011;673;48.098;14.422;2023-06-22T08:21:13;4.80;;;3.40;;
1358;SDS011;673;48.098;14.422;2023-06-22T08:23:40;7.87;;;4.23;;
1358;SDS011;673;48.098;14.422;2023-06-22T08:26:07;6.50;;;3.73;;
1358;SDS011;673;48.098;14.422;2023-06-22T08:28:34;5.87;;;3.10;;
1358;SDS011;673;48.098;14.422;2023-06-22T08:31:01;7.80;;;3.80;;
1358;SDS011;673;48.098;14.422;2023-06-22T08:33:29;5.20;;;3.13;;
1358;SDS011;673;48.098;14.422;2023-06-22T08:35:57;6.60;;;4.10;;
1358;SDS011;673;48.098;14.422;2023-06-22T08:38:25;4.40;;;3.13;;
1358;SDS011;673;48.098;14.422;2023-06-22T08:40:52;5.43;;;3.33;;
1358;SDS011;673;48.098;14.422;2023-06-22T08:43:19;3.50;;;3.07;;
1358;SDS011;673;48.098;14.422;2023-06-22T08:45:46;9.23;;;3.90;;
1358;SDS011;673;48.098;14.422;2023-06-22T08:48:13;4.57;;;3.03;;
1358;SDS011;673;48.098;14.422;2023-06-22T08:50:40;4.07;;;2.93;;
1358;SDS011;673;48.098;14.422;2023-06-22T08:53:08;6.97;;;4.00;;
1358;SDS011;673;48.098;14.422;2023-06-22T08:55:35;5.50;;;3.67;;
1358;SDS011;673;48.098;14.422;2023-06-22T08:58:02;4.50;;;3.67;;
1358;SDS011;673;48.098;14.422;2023-06-22T09:00:29;4.73;;;3.37;;
1358;SDS011;673;48.098;14.422;2023-06-22T09:02:59;4.00;;;3.40;;
1358;SDS011;673;48.098;14.422;2023-06-22T09:05:26;5.83;;;3.50;;
1358;SDS011;673;48.098;14.422;2023-06-22T09:07:53;3.60;;;3.00;;
1358;SDS011;673;48.098;14.422;2023-06-22T09:10:25;4.33;;;3.30;;
1358;SDS011;673;48.098;14.422;2023-06-22T09:12:52;5.93;;;4.03;;
1358;SDS011;673;48.098;14.422;2023-06-22T09:15:19;5.60;;;4.67;;
1358;SDS011;673;48.098;14.422;2023-06-22T09:17:46;4.40;;;3.40;;
1358;SDS011;673;48.098;14.422;2023-06-22T09:20:13;7.10;;;3.97;;
1358;SDS011;673;48.098;14.422;2023-06-22T09:22:40;3.10;;;2.80;;
1358;SDS011;673;48.098;14.422;2023-06-22T09:25:09;4.63;;;3.40;;
1358;SDS011;673;48.098;14.422;2023-06-22T09:27:37;5.90;;;3.90;;
1358;SDS011;673;48.098;14.422;2023-06-22T09:30:05;4.97;;;4.27;;
1358;SDS011;673;48.098;14.422;2023-06-22T09:32:32;8.53;;;4.77;;
1358;SDS011;673;48.098;14.422;2023-06-22T09:35:01;7.57;;;3.53;;
1358;SDS011;673;48.098;14.422;2023-06-22T09:37:32;4.10;;;3.70;;
1358;SDS011;673;48.098;14.422;2023-06-22T09:39:58;4.70;;;3.70;;
1358;SDS011;673;48.098;14.422;2023-06-22T09:42:25;8.60;;;4.10;;
1358;SDS011;673;48.098;14.422;2023-06-22T09:44:54;10.97;;;5.43;;
1358;SDS011;673;48.098;14.422;2023-06-22T09:47:21;6.60;;;3.63;;
1358;SDS011;673;48.098;14.422;2023-06-22T09:49:48;7.43;;;3.90;;
1358;SDS011;673;48.098;14.422;2023-06-22T09:52:15;3.20;;;2.67;;
1358;SDS011;673;48.098;14.422;2023-06-22T09:54:42;6.33;;;3.57;;
1358;SDS011;673;48.098;14.422;2023-06-22T09:57:09;4.03;;;3.73;;
1358;SDS011;673;48.098;14.422;2023-06-22T09:59:36;8.03;;;4.07;;
1358;SDS011;673;48.098;14.422;2023-06-22T10:02:05;4.80;;;3.50;;
1358;SDS011;673;48.098;14.422;2023-06-22T10:04:32;9.27;;;5.30;;
1358;SDS011;673;48.098;14.422;2023-06-22T10:06:59;5.97;;;3.90;;
1358;SDS011;673;48.098;14.422;2023-06-22T10:09:26;5.50;;;3.27;;
1358;SDS011;673;48.098;14.422;2023-06-22T10:11:53;6.23;;;4.00;;
1358;SDS011;673;48.098;14.422;2023-06-22T10:14:20;6.67;;;3.57;;
1358;SDS011;673;48.098;14.422;2023-06-22T10:16:48;10.20;;;3.90;;
1358;SDS011;673;48.098;14.422;2023-06-22T10:19:16;5.13;;;3.83;;
1358;SDS011;673;48.098;14.422;2023-06-22T10:21:43;3.70;;;3.40;;
1358;SDS011;673;48.098;14.422;2023-06-22T10:24:10;5.30;;;3.00;;
1358;SDS011;673;48.098;14.422;2023-06-22T10:26:37;4.50;;;4.07;;
1358;SDS011;673;48.098;14.422;2023-06-22T10:29:04;3.70;;;3.37;;
1358;SDS011;673;48.098;14.422;2023-06-22T10:31:31;8.57;;;3.53;;
1358;SDS011;673;48.098;14.422;2023-06-22T10:33:58;5.70;;;3.63;;
1358;SDS011;673;48.098;14.422;2023-06-22T10:36:26;4.43;;;3.10;;
1358;SDS011;673;48.098;14.422;2023-06-22T10:38:53;6.23;;;3.77;;
1358;SDS011;673;48.098;14.422;2023-06-22T10:41:24;8.60;;;4.30;;
1358;SDS011;673;48.098;14.422;2023-06-22T10:43:51;5.90;;;3.57;;
1358;SDS011;673;48.098;14.422;2023-06-22T10:46:18;5.97;;;3.73;;
1358;SDS011;673;48.098;14.422;2023-06-22T10:48:45;7.97;;;4.57;;
1358;SDS011;673;48.098;14.422;2023-06-22T10:51:11;8.03;;;3.93;;
1358;SDS011;673;48.098;14.422;2023-06-22T10:53:40;5.90;;;3.73;;
1358;SDS011;673;48.098;14.422;2023-06-22T10:56:08;5.73;;;3.77;;
1358;SDS011;673;48.098;14.422;2023-06-22T10:58:35;4.37;;;3.47;;
1358;SDS011;673;48.098;14.422;2023-06-22T11:01:02;7.63;;;4.37;;
1358;SDS011;673;48.098;14.422;2023-06-22T11:03:29;9.90;;;3.97;;
1358;SDS011;673;48.098;14.422;2023-06-22T11:05:56;5.60;;;3.93;;
1358;SDS011;673;48.098;14.422;2023-06-22T11:08:22;8.70;;;4.90;;
1358;SDS011;673;48.098;14.422;2023-06-22T11:10:51;3.97;;;3.67;;
1358;SDS011;673;48.098;14.422;2023-06-22T11:13:18;5.07;;;3.23;;
1358;SDS011;673;48.098;14.422;2023-06-22T11:15:45;5.60;;;4.30;;
1358;SDS011;673;48.098;14.422;2023-06-22T11:18:12;7.33;;;4.80;;
1358;SDS011;673;48.098;14.422;2023-06-22T11:20:39;6.63;;;3.87;;
1358;SDS011;673;48.098;14.422;2023-06-22T11:23:06;5.77;;;4.97;;
1358;SDS011;673;48.098;14.422;2023-06-22T11:25:33;6.47;;;4.23;;
1358;SDS011;673;48.098;14.422;2023-06-22T11:28:02;7.47;;;4.50;;
1358;SDS011;673;48.098;14.422;2023-06-22T11:30:30;7.33;;;4.93;;
1358;SDS011;673;48.098;14.422;2023-06-22T11:32:58;6.37;;;4.17;;
1358;SDS011;673;48.098;14.422;2023-06-22T11:35:25;4.93;;;3.83;;
1358;SDS011;673;48.098;14.422;2023-06-22T11:37:52;5.40;;;4.63;;
1358;SDS011;673;48.098;14.422;2023-06-22T11:40:19;4.90;;;4.50;;
1358;SDS011;673;48.098;14.422;2023-06-22T11:42:48;6.40;;;5.90;;
1358;SDS011;673;48.098;14.422;2023-06-22T11:45:16;6.60;;;4.97;;
1358;SDS011;673;48.098;14.422;2023-06-22T11:47:44;5.60;;;5.00;;
1358;SDS011;673;48.098;14.422;2023-06-22T11:50:11;8.33;;;5.40;;
1358;SDS011;673;48.098;14.422;2023-06-22T11:52:38;7.80;;;3.70;;
1358;SDS011;673;48.098;14.422;2023-06-22T11:55:05;8.67;;;3.90;;
1358;SDS011;673;48.098;14.422;2023-06-22T11:57:33;12.23;;;5.43;;
1358;SDS011;673;48.098;14.422;2023-06-22T12:00:00;8.67;;;5.03;;
1358;SDS011;673;48.098;14.422;2023-06-22T12:02:32;7.10;;;3.40;;
1358;SDS011;673;48.098;14.422;2023-06-22T12:05:00;5.03;;;3.97;;
1358;SDS011;673;48.098;14.422;2023-06-22T12:07:29;11.27;;;5.10;;
1358;SDS011;673;48.098;14.422;2023-06-22T12:09:56;7.00;;;4.70;;
1358;SDS011;673;48.098;14.422;2023-06-22T12:12:23;6.00;;;4.40;;
1358;SDS011;673;48.098;14.422;2023-06-22T12:14:50;5.57;;;4.60;;
1358;SDS011;673;48.098;14.422;2023-06-22T12:17:17;6.73;;;4.90;;
1358;SDS011;673;48.098;14.422;2023-06-22T12:19:45;9.37;;;4.90;;
1358;SDS011;673;48.098;14.422;2023-06-22T12:22:12;7.00;;;5.17;;
1358;SDS011;673;48.098;14.422;2023-06-22T12:24:39;6.70;;;3.97;;
1358;SDS011;673;48.098;14.422;2023-06-22T12:27:06;9.63;;;4.73;;
1358;SDS011;673;48.098;14.422;2023-06-22T12:29:33;6.17;;;5.27;;
1358;SDS011;673;48.098;14.422;2023-06-22T12:32:00;11.80;;;5.20;;
1358;SDS011;673;48.098;14.422;2023-06-22T12:34:27;4.77;;;4.30;;
1358;SDS011;673;48.098;14.422;2023-06-22T12:36:55;8.13;;;4.30;;
1358;SDS011;673;48.098;14.422;2023-06-22T12:39:22;7.03;;;4.27;;
1358;SDS011;673;48.098;14.422;2023-06-22T12:41:49;9.60;;;4.83;;
1358;SDS011;673;48.098;14.422;2023-06-22T12:44:16;5.60;;;4.43;;
1358;SDS011;673;48.098;14.422;2023-06-22T12:46:43;11.57;;;6.07;;
1358;SDS011;673;48.098;14.422;2023-06-22T12:49:10;9.03;;;4.97;;
1358;SDS011;673;48.098;14.422;2023-06-22T12:51:39;6.73;;;4.30;;
1358;SDS011;673;48.098;14.422;2023-06-22T12:54:08;8.43;;;5.53;;
1358;SDS011;673;48.098;14.422;2023-06-22T12:56:35;8.70;;;4.77;;
1358;SDS011;673;48.098;14.422;2023-06-22T12:59:03;6.50;;;5.00;;
1358;SDS011;673;48.098;14.422;2023-06-22T13:01:31;4.97;;;4.13;;
1358;SDS011;673;48.098;14.422;2023-06-22T13:03:58;5.83;;;4.97;;
1358;SDS011;673;48.098;14.422;2023-06-22T13:06:25;6.53;;;4.80;;
1358;SDS011;673;48.098;14.422;2023-06-22T13:08:52;7.80;;;5.20;;
1358;SDS011;673;48.098;14.422;2023-06-22T13:11:20;9.77;;;5.27;;
1358;SDS011;673;48.098;14.422;2023-06-22T13:13:47;7.23;;;6.53;;
1358;SDS011;673;48.098;14.422;2023-06-22T13:16:14;5.93;;;4.07;;
1358;SDS011;673;48.098;14.422;2023-06-22T13:18:41;5.83;;;5.23;;
1358;SDS011;673;48.098;14.422;2023-06-22T13:21:08;8.10;;;6.10;;
1358;SDS011;673;48.098;14.422;2023-06-22T13:23:35;10.60;;;5.43;;
1358;SDS011;673;48.098;14.422;2023-06-22T13:26:02;6.17;;;5.10;;
1358;SDS011;673;48.098;14.422;2023-06-22T13:28:31;6.70;;;5.03;;
1358;SDS011;673;48.098;14.422;2023-06-22T13:30:58;6.97;;;5.03;;
1358;SDS011;673;48.098;14.422;2023-06-22T13:33:25;9.03;;;5.50;;
1358;SDS011;673;48.098;14.422;2023-06-22T13:35:52;8.80;;;5.10;;
1358;SDS011;673;48.098;14.422;2023-06-22T13:38:19;13.63;;;5.60;;
1358;SDS011;673;48.098;14.422;2023-06-22T13:40:47;7.70;;;5.50;;
1358;SDS011;673;48.098;14.422;2023-06-22T13:43:14;7.23;;;6.40;;
1358;SDS011;673;48.098;14.422;2023-06-22T13:45:44;7.30;;;6.37;;
1358;SDS011;673;48.098;14.422;2023-06-22T13:48:11;7.80;;;7.10;;
1358;SDS011;673;48.098;14.422;2023-06-22T13:50:37;7.20;;;6.50;;
1358;SDS011;673;48.098;14.422;2023-06-22T13:53:04;7.27;;;6.67;;
1358;SDS011;673;48.098;14.422;2023-06-22T13:55:31;7.53;;;6.07;;
1358;SDS011;673;48.098;14.422;2023-06-22T13:57:58;7.10;;;6.40;;
1358;SDS011;673;48.098;14.422;2023-06-22T14:00:25;6.97;;;6.37;;
1358;SDS011;673;48.098;14.422;2023-06-22T14:02:54;9.23;;;6.63;;
1358;SDS011;673;48.098;14.422;2023-06-22T14:05:21;10.07;;;6.60;;
1358;SDS011;673;48.098;14.422;2023-06-22T14:07:48;8.13;;;7.20;;
1358;SDS011;673;48.098;14.422;2023-06-22T14:10:15;7.80;;;6.57;;
1358;SDS011;673;48.098;14.422;2023-06-22T14:12:42;8.13;;;7.07;;
1358;SDS011;673;48.098;14.422;2023-06-22T14:15:09;6.80;;;6.20;;
1358;SDS011;673;48.098;14.422;2023-06-22T14:17:36;19.00;;;9.40;;
1358;SDS011;673;48.098;14.422;2023-06-22T14:20:05;10.83;;;8.13;;
1358;SDS011;673;48.098;14.422;2023-06-22T14:22:33;9.97;;;7.80;;
1358;SDS011;673;48.098;14.422;2023-06-22T14:25:01;7.17;;;6.10;;
1358;SDS011;673;48.098;14.422;2023-06-22T14:27:28;8.10;;;7.27;;
1358;SDS011;673;48.098;14.422;2023-06-22T14:29:55;9.20;;;6.60;;
1358;SDS011;673;48.098;14.422;2023-06-22T14:32:22;8.33;;;6.57;;
1358;SDS011;673;48.098;14.422;2023-06-22T14:34:50;8.23;;;7.20;;
1358;SDS011;673;48.098;14.422;2023-06-22T14:37:18;14.10;;;7.13;;
1358;SDS011;673;48.098;14.422;2023-06-22T14:39:45;10.87;;;7.57;;
1358;SDS011;673;48.098;14.422;2023-06-22T14:42:12;12.60;;;6.40;;
1358;SDS011;673;48.098;14.422;2023-06-22T14:44:39;10.93;;;7.30;;
1358;SDS011;673;48.098;14.422;2023-06-22T14:47:06;10.03;;;5.80;;
1358;SDS011;673;48.098;14.422;2023-06-22T14:49:33;6.80;;;5.90;;
1358;SDS011;673;48.098;14.422;2023-06-22T14:52:01;8.07;;;6.10;;
1358;SDS011;673;48.098;14.422;2023-06-22T14:54:30;13.17;;;7.23;;
1358;SDS011;673;48.098;14.422;2023-06-22T14:56:57;8.03;;;6.00;;
1358;SDS011;673;48.098;14.422;2023-06-22T14:59:24;7.80;;;7.07;;
1358;SDS011;673;48.098;14.422;2023-06-22T15:01:50;10.73;;;6.63;;
1358;SDS011;673;48.098;14.422;2023-06-22T15:04:17;8.80;;;6.83;;
1358;SDS011;673;48.098;14.422;2023-06-22T15:06:44;6.60;;;5.90;;
1358;SDS011;673;48.098;14.422;2023-06-22T15:09:11;6.87;;;6.00;;
1358;SDS011;673;48.098;14.422;2023-06-22T15:11:39;10.30;;;6.13;;
1358;SDS011;673;48.098;14.422;2023-06-22T15:14:06;10.73;;;6.03;;
1358;SDS011;673;48.098;14.422;2023-06-22T15:16:33;6.70;;;5.90;;
1358;SDS011;673;48.098;14.422;2023-06-22T15:19:00;14.87;;;6.47;;